Time;durP1;ratioP1;P1;durP2;ratioP2;P2;SDS_P1;SDS_P2;PMS_P1;PMS_P2;Temp;Humidity;BMP_temperature;BMP_pressure;BME280_temperature;BME280_humidity;BME280_pressure;Samples;Min_cycle;Max_cycle;Signal;HPM_P1;HPM_P2
2023/01/02 00:01:51;;;;;;;0.60;0.40;;;14.00;99.90;;;;;;5094517;28;20520;-57
2023/01/02 00:04:19;;;;;;;1.30;0.77;;;13.90;99.90;;;;;;5093722;28;20813;-57
2023/01/02 00:06:47;;;;;;;1.20;0.40;;;14.00;99.90;;;;;;5093860;28;20513;-57
2023/01/02 00:09:17;;;;;;;0.70;0.30;;;14.00;99.90;;;;;;5093582;28;20501;-57
2023/01/02 00:11:44;;;;;;;0.70;0.30;;;14.00;99.90;;;;;;5094040;28;20437;-57
2023/01/02 00:14:11;;;;;;;0.60;0.30;;;13.90;99.90;;;;;;5092786;28;21036;-57
2023/01/02 00:16:38;;;;;;;0.80;0.40;;;13.90;99.90;;;;;;5091933;28;20524;-57
2023/01/02 00:19:07;;;;;;;1.33;0.40;;;13.90;99.90;;;;;;5092357;28;21055;-57
2023/01/02 00:21:34;;;;;;;1.60;0.40;;;13.90;99.90;;;;;;5092183;28;20778;-57
2023/01/02 00:24:03;;;;;;;0.80;0.40;;;13.90;99.90;;;;;;5092669;28;20805;-57
2023/01/02 00:26:31;;;;;;;0.80;0.40;;;14.00;99.90;;;;;;5091777;28;20500;-57
2023/01/02 00:28:58;;;;;;;0.90;0.40;;;14.00;99.90;;;;;;5092800;28;20500;-56
2023/01/02 00:31:25;;;;;;;0.90;0.40;;;14.00;99.90;;;;;;5094022;28;20910;-57
2023/01/02 00:33:52;;;;;;;0.60;0.30;;;14.00;99.90;;;;;;5096429;28;20512;-58
2023/01/02 00:36:19;;;;;;;1.48;0.30;;;13.90;99.90;;;;;;5098114;28;20479;-56
2023/01/02 00:38:47;;;;;;;0.70;0.38;;;13.90;99.90;;;;;;5097701;28;20517;-57
2023/01/02 00:41:15;;;;;;;1.00;0.40;;;13.90;99.90;;;;;;5097333;28;20421;-58
2023/01/02 00:43:43;;;;;;;0.60;0.30;;;13.90;99.90;;;;;;5097493;28;20428;-55
2023/01/02 00:46:10;;;;;;;0.80;0.40;;;13.90;99.90;;;;;;5096753;28;20414;-57
2023/01/02 00:48:37;;;;;;;1.30;0.30;;;13.90;99.90;;;;;;5097542;28;20744;-57
2023/01/02 00:51:05;;;;;;;0.80;0.40;;;13.90;99.90;;;;;;5097813;28;20544;-57
2023/01/02 00:53:32;;;;;;;0.70;0.40;;;13.90;99.90;;;;;;5097897;28;20475;-56
2023/01/02 00:55:59;;;;;;;0.80;0.40;;;13.90;99.90;;;;;;5097918;28;20500;-56
2023/01/02 00:58:28;;;;;;;1.15;0.40;;;13.90;99.90;;;;;;5097410;28;20495;-57
2023/01/02 01:00:55;;;;;;;0.90;0.40;;;13.90;99.90;;;;;;5097296;28;20432;-56
2023/01/02 01:03:22;;;;;;;0.70;0.40;;;13.80;99.90;;;;;;5097719;28;20520;-57
2023/01/02 01:05:49;;;;;;;0.65;0.40;;;13.80;99.90;;;;;;5097464;28;20792;-56
2023/01/02 01:08:17;;;;;;;0.73;0.40;;;13.80;99.90;;;;;;5097061;28;20580;-57
2023/01/02 01:10:44;;;;;;;1.15;0.40;;;13.80;99.90;;;;;;5095575;28;20508;-57
2023/01/02 01:13:11;;;;;;;1.45;0.40;;;13.70;99.90;;;;;;5097101;28;20516;-57
2023/01/02 01:15:40;;;;;;;1.20;0.40;;;13.70;99.90;;;;;;5097184;28;20494;-57
2023/01/02 01:18:07;;;;;;;1.00;0.40;;;13.60;99.90;;;;;;5097216;28;20777;-56
2023/01/02 01:20:37;;;;;;;0.80;0.40;;;13.60;99.90;;;;;;5096855;28;20861;-56
2023/01/02 01:23:05;;;;;;;1.50;0.40;;;13.60;99.90;;;;;;5096033;28;20528;-57
2023/01/02 01:25:32;;;;;;;1.50;0.50;;;13.60;99.90;;;;;;5095330;28;20428;-57
2023/01/02 01:27:59;;;;;;;1.00;0.50;;;13.50;99.90;;;;;;5095153;28;20524;-57
2023/01/02 01:30:26;;;;;;;1.17;0.50;;;13.50;99.90;;;;;;5095276;28;20505;-57
2023/01/02 01:32:55;;;;;;;0.80;0.40;;;13.40;99.90;;;;;;5094738;28;20430;-57
2023/01/02 01:35:22;;;;;;;0.70;0.40;;;13.40;99.90;;;;;;5094765;28;20502;-57
2023/01/02 01:37:49;;;;;;;0.77;0.40;;;13.30;99.90;;;;;;5095039;28;20924;-56
2023/01/02 01:40:17;;;;;;;0.95;0.40;;;13.30;99.90;;;;;;5096578;28;20452;-57
2023/01/02 01:42:44;;;;;;;0.90;0.40;;;13.20;99.90;;;;;;5097134;28;20517;-57
2023/01/02 01:45:14;;;;;;;0.73;0.40;;;13.20;99.90;;;;;;5094631;28;20509;-57
2023/01/02 01:47:45;;;;;;;0.70;0.30;;;13.20;99.90;;;;;;5095915;28;20430;-55
2023/01/02 01:50:18;;;;;;;0.70;0.40;;;13.20;99.90;;;;;;5095246;28;20432;-57
2023/01/02 01:52:49;;;;;;;0.73;0.50;;;13.20;99.90;;;;;;5095147;28;20426;-56
2023/01/02 01:55:21;;;;;;;1.08;0.50;;;13.20;99.90;;;;;;5096001;28;20432;-57
2023/01/02 01:57:53;;;;;;;0.90;0.50;;;13.20;99.90;;;;;;5096047;28;20426;-56
2023/01/02 02:00:21;;;;;;;0.70;0.40;;;13.20;99.90;;;;;;5094768;28;20436;-57
2023/01/02 02:02:54;;;;;;;0.80;0.50;;;13.10;99.90;;;;;;5094615;28;20457;-57
2023/01/02 02:05:25;;;;;;;1.10;0.50;;;13.10;99.90;;;;;;5095534;28;20418;-57
2023/01/02 02:08:02;;;;;;;1.20;0.50;;;13.10;99.90;;;;;;5094389;28;20548;-57
2023/01/02 02:10:30;;;;;;;1.10;0.70;;;13.00;99.90;;;;;;5094738;28;20531;-56
2023/01/02 02:12:57;;;;;;;1.77;0.68;;;12.90;99.90;;;;;;5093517;28;20849;-57
2023/01/02 02:15:31;;;;;;;1.65;0.63;;;12.90;99.90;;;;;;5094733;28;20426;-56
2023/01/02 02:18:07;;;;;;;1.00;0.70;;;12.90;99.90;;;;;;5094771;28;20581;-56
2023/01/02 02:20:43;;;;;;;1.40;0.70;;;12.90;99.90;;;;;;5095503;28;20815;-57
2023/01/02 02:23:57;;;;;;;1.45;0.70;;;12.80;99.90;;;;;;5095335;28;20430;-56
2023/01/02 02:26:55;;;;;;;1.42;0.70;;;12.80;99.90;;;;;;5013386;28;20507;-56
2023/01/02 02:30:04;;;;;;;1.65;0.70;;;12.80;99.90;;;;;;5092709;28;20509;-56
2023/01/02 02:32:47;;;;;;;1.77;0.80;;;12.80;99.90;;;;;;5095463;28;20457;-57
2023/01/02 02:35:22;;;;;;;1.00;0.70;;;12.80;99.90;;;;;;5093134;28;20516;-56
2023/01/02 02:37:53;;;;;;;2.28;0.70;;;12.70;99.90;;;;;;5094840;28;20430;-57
2023/01/02 02:40:33;;;;;;;1.20;0.60;;;12.70;99.90;;;;;;5093184;28;21040;-57
2023/01/02 02:43:10;;;;;;;1.33;0.80;;;12.70;99.90;;;;;;5094389;28;20819;-57
2023/01/02 02:45:47;;;;;;;1.30;0.70;;;12.60;99.90;;;;;;5094795;28;20414;-57
2023/01/02 02:48:20;;;;;;;1.40;0.60;;;12.60;99.90;;;;;;5094963;28;20418;-56
2023/01/02 02:50:54;;;;;;;1.43;0.70;;;12.60;99.90;;;;;;5094817;28;20501;-57
2023/01/02 02:53:24;;;;;;;1.50;0.70;;;12.60;99.90;;;;;;5095194;28;20464;-57
2023/01/02 02:55:54;;;;;;;1.40;0.73;;;12.60;99.90;;;;;;5094180;28;20414;-55
2023/01/02 02:58:22;;;;;;;1.17;0.70;;;12.50;99.90;;;;;;5094775;28;20525;-56
2023/01/02 03:00:50;;;;;;;1.60;0.60;;;12.50;99.90;;;;;;5094641;28;20433;-57
2023/01/02 03:03:20;;;;;;;1.42;0.63;;;12.40;99.90;;;;;;5094985;28;20520;-56
2023/01/02 03:06:04;;;;;;;1.10;0.83;;;12.50;99.90;;;;;;5094677;28;20424;-56
2023/01/02 03:08:38;;;;;;;2.40;0.60;;;12.50;99.90;;;;;;5094802;28;20429;-57
2023/01/02 03:11:06;;;;;;;1.80;0.60;;;12.50;99.90;;;;;;5094768;28;20421;-58
2023/01/02 03:13:43;;;;;;;0.98;0.50;;;12.50;99.90;;;;;;5095363;28;20516;-57
2023/01/02 03:16:16;;;;;;;0.70;0.40;;;12.60;99.90;;;;;;5093664;28;20800;-56
2023/01/02 03:18:51;;;;;;;1.23;0.40;;;12.70;99.90;;;;;;5094115;28;20501;-57
2023/01/02 03:21:24;;;;;;;0.60;0.40;;;13.00;99.90;;;;;;5093719;28;20508;-56
2023/01/02 03:23:51;;;;;;;0.90;0.30;;;13.10;99.90;;;;;;5093396;28;20425;-57
2023/01/02 03:26:24;;;;;;;1.50;0.40;;;13.10;99.90;;;;;;5093284;28;20418;-57
2023/01/02 03:28:57;;;;;;;0.60;0.30;;;13.20;99.90;;;;;;5092967;28;20469;-57
2023/01/02 03:31:26;;;;;;;1.10;0.30;;;13.20;99.90;;;;;;5091999;28;21004;-57
2023/01/02 03:34:01;;;;;;;0.60;0.40;;;13.30;99.90;;;;;;5093402;28;20406;-58
2023/01/02 03:36:31;;;;;;;0.60;0.40;;;13.30;99.90;;;;;;5093299;28;20428;-57
2023/01/02 03:39:05;;;;;;;0.60;0.40;;;13.30;99.90;;;;;;5093338;28;20414;-57
2023/01/02 03:41:36;;;;;;;0.60;0.30;;;13.40;99.90;;;;;;5093863;28;20429;-57
2023/01/02 03:44:07;;;;;;;1.00;0.30;;;13.30;99.90;;;;;;5094112;28;20505;-57
2023/01/02 03:46:42;;;;;;;0.60;0.30;;;13.40;99.90;;;;;;5093847;28;20509;-57
2023/01/02 03:49:18;;;;;;;1.10;0.30;;;13.40;99.90;;;;;;5093359;28;20437;-57
2023/01/02 03:51:46;;;;;;;0.70;0.30;;;13.40;99.90;;;;;;5094081;28;20521;-57
2023/01/02 03:54:15;;;;;;;0.70;0.30;;;13.50;99.90;;;;;;5093522;28;20440;-56
2023/01/02 03:56:53;;;;;;;1.10;0.40;;;13.60;99.90;;;;;;5094214;28;20524;-57
2023/01/02 03:59:28;;;;;;;1.70;0.30;;;13.60;99.90;;;;;;5093533;28;20488;-57
2023/01/02 04:02:01;;;;;;;0.77;0.30;;;13.50;99.90;;;;;;5093738;28;20437;-56
2023/01/02 04:04:38;;;;;;;0.60;0.30;;;13.50;99.90;;;;;;5093170;28;20509;-57
2023/01/02 04:07:11;;;;;;;1.00;0.38;;;13.50;99.90;;;;;;5093904;28;20606;-57
2023/01/02 04:09:40;;;;;;;0.80;0.30;;;13.50;99.90;;;;;;5097388;28;20421;-57
2023/01/02 04:12:11;;;;;;;0.88;0.30;;;13.60;99.90;;;;;;5097786;28;20916;-57
2023/01/02 04:14:43;;;;;;;1.00;0.30;;;13.70;99.90;;;;;;5097631;28;20524;-56
2023/01/02 04:17:13;;;;;;;0.85;0.40;;;13.70;99.90;;;;;;5097906;28;20520;-59
2023/01/02 04:19:46;;;;;;;0.90;0.33;;;13.70;99.90;;;;;;5097517;28;20508;-56
2023/01/02 04:22:21;;;;;;;1.15;0.30;;;13.70;99.90;;;;;;5097483;28;20483;-55
2023/01/02 04:24:54;;;;;;;1.70;0.38;;;13.70;99.90;;;;;;5096986;28;20864;-56
2023/01/02 04:27:25;;;;;;;0.80;0.40;;;13.60;99.90;;;;;;5098158;28;20438;-55
2023/01/02 04:29:53;;;;;;;0.65;0.30;;;13.50;99.90;;;;;;5097490;28;20424;-56
2023/01/02 04:32:24;;;;;;;0.88;0.30;;;13.50;99.90;;;;;;5097827;28;20516;-56
2023/01/02 04:34:54;;;;;;;1.20;0.40;;;13.50;99.90;;;;;;5097378;28;20726;-55
2023/01/02 04:37:29;;;;;;;1.00;0.40;;;13.50;99.90;;;;;;5097781;28;20970;-56
2023/01/02 04:39:59;;;;;;;1.60;0.50;;;13.40;99.90;;;;;;5097673;28;20420;-57
2023/01/02 04:42:26;;;;;;;1.50;0.40;;;13.30;99.90;;;;;;5097975;28;20430;-57
2023/01/02 04:44:54;;;;;;;0.70;0.40;;;13.30;99.90;;;;;;5096810;28;20532;-56
2023/01/02 04:47:21;;;;;;;0.70;0.30;;;13.20;99.90;;;;;;5097507;28;20428;-56
2023/01/02 04:49:48;;;;;;;0.90;0.35;;;13.20;99.90;;;;;;5098014;28;20497;-57
2023/01/02 04:52:17;;;;;;;1.17;0.40;;;13.20;99.90;;;;;;5097520;28;20501;-57
2023/01/02 04:54:44;;;;;;;1.00;0.30;;;13.10;99.90;;;;;;5097564;28;20414;-56
2023/01/02 04:57:11;;;;;;;1.30;0.40;;;13.20;99.90;;;;;;5097489;28;20748;-56
2023/01/02 04:59:38;;;;;;;0.70;0.30;;;13.20;99.90;;;;;;5097260;28;20516;-56
2023/01/02 05:02:05;;;;;;;0.67;0.30;;;13.20;99.90;;;;;;5097126;28;20430;-56
2023/01/02 05:04:33;;;;;;;0.60;0.30;;;13.20;99.90;;;;;;5096671;28;20528;-57
2023/01/02 05:07:00;;;;;;;0.70;0.30;;;13.20;99.90;;;;;;5097201;28;20461;-56
2023/01/02 05:09:28;;;;;;;1.08;0.30;;;13.20;99.90;;;;;;5096773;28;20428;-56
2023/01/02 05:11:56;;;;;;;0.80;0.40;;;13.20;99.90;;;;;;5097344;28;20446;-56
2023/01/02 05:14:23;;;;;;;0.82;0.40;;;13.10;99.90;;;;;;5096887;28;20401;-57
2023/01/02 05:16:50;;;;;;;1.08;0.40;;;13.20;99.90;;;;;;5096202;28;20916;-56
2023/01/02 05:19:17;;;;;;;1.23;0.30;;;13.30;99.90;;;;;;5096134;28;20410;-57
2023/01/02 05:24:31;;;;;;;1.30;0.30;;;13.50;99.90;;;;;;5096633;28;20452;-56
2023/01/02 05:26:58;;;;;;;1.00;0.40;;;13.60;99.90;;;;;;5095868;28;20426;-58
2023/01/02 05:29:25;;;;;;;1.00;0.30;;;13.70;99.90;;;;;;5096650;28;20922;-57
2023/01/02 05:31:52;;;;;;;0.60;0.32;;;13.70;99.90;;;;;;5096802;28;20425;-57
2023/01/02 05:34:20;;;;;;;0.50;0.30;;;13.70;99.90;;;;;;5096485;28;20410;-54
2023/01/02 05:36:47;;;;;;;0.75;0.30;;;13.70;99.90;;;;;;5096411;28;20432;-58
2023/01/02 05:39:14;;;;;;;0.80;0.40;;;13.80;99.90;;;;;;5095588;28;20457;-57
2023/01/02 05:41:43;;;;;;;0.60;0.30;;;13.90;99.90;;;;;;5095933;28;20438;-56
2023/01/02 05:44:11;;;;;;;1.10;0.40;;;13.80;99.90;;;;;;5096471;28;20447;-57
2023/01/02 05:46:39;;;;;;;1.30;0.30;;;13.90;99.90;;;;;;5095855;28;20532;-57
2023/01/02 05:49:07;;;;;;;1.20;0.40;;;13.80;99.90;;;;;;5096064;28;20422;-56
2023/01/02 05:51:35;;;;;;;0.70;0.40;;;13.90;99.90;;;;;;5095690;28;20420;-57
2023/01/02 05:54:03;;;;;;;0.90;0.30;;;14.00;99.90;;;;;;5079670;28;20419;-57
2023/01/02 05:56:30;;;;;;;0.60;0.35;;;14.00;99.90;;;;;;5075609;28;20499;-57
2023/01/02 05:58:59;;;;;;;1.00;0.40;;;13.90;99.90;;;;;;5074427;28;20993;-55
2023/01/02 06:01:28;;;;;;;1.50;0.40;;;13.90;99.90;;;;;;5074441;28;20427;-57
2023/01/02 06:03:57;;;;;;;0.50;0.30;;;13.90;99.90;;;;;;5074516;28;20495;-55
2023/01/02 06:06:26;;;;;;;2.30;0.40;;;14.00;99.90;;;;;;5073386;28;20510;-56
2023/01/02 06:08:53;;;;;;;0.73;0.40;;;14.00;99.90;;;;;;5073119;28;21069;-56
2023/01/02 06:11:21;;;;;;;0.70;0.40;;;14.00;99.90;;;;;;5072687;28;20491;-56
2023/01/02 06:13:48;;;;;;;0.55;0.30;;;14.10;99.90;;;;;;5073212;28;20426;-56
2023/01/02 06:16:17;;;;;;;0.60;0.40;;;14.10;99.90;;;;;;5073704;28;20426;-56
2023/01/02 06:18:44;;;;;;;1.13;0.40;;;14.10;99.90;;;;;;5074033;28;20424;-56
2023/01/02 06:21:13;;;;;;;1.20;0.38;;;14.10;99.90;;;;;;5073138;28;21091;-57
2023/01/02 06:23:40;;;;;;;1.00;0.30;;;14.20;99.90;;;;;;5086461;28;20513;-55
2023/01/02 06:26:10;;;;;;;0.90;0.40;;;14.10;99.90;;;;;;5092839;28;20422;-56
2023/01/02 06:28:38;;;;;;;0.80;0.40;;;14.10;99.90;;;;;;5093643;28;20490;-55
2023/01/02 06:31:07;;;;;;;0.60;0.40;;;14.10;99.90;;;;;;5093298;28;20809;-54
2023/01/02 06:33:36;;;;;;;0.90;0.40;;;14.20;99.90;;;;;;5091812;28;20524;-53
2023/01/02 06:36:06;;;;;;;2.15;0.40;;;14.20;99.90;;;;;;5091890;28;20500;-56
2023/01/02 06:38:33;;;;;;;0.70;0.40;;;14.30;99.90;;;;;;5091219;28;20954;-54
2023/01/02 06:41:02;;;;;;;0.90;0.40;;;14.30;99.90;;;;;;5092264;28;20426;-56
2023/01/02 06:43:31;;;;;;;1.17;0.30;;;14.20;99.90;;;;;;5090989;28;20837;-54
2023/01/02 06:45:59;;;;;;;2.10;0.45;;;14.20;99.90;;;;;;5091367;28;20973;-50
2023/01/02 06:48:26;;;;;;;1.10;0.70;;;14.20;99.90;;;;;;5091055;28;20820;-56
2023/01/02 06:50:55;;;;;;;1.20;0.40;;;14.20;99.90;;;;;;5092330;28;20792;-56
2023/01/02 06:53:22;;;;;;;2.10;0.40;;;14.10;99.90;;;;;;5092659;28;20554;-50
2023/01/02 06:55:53;;;;;;;1.30;0.50;;;14.10;99.90;;;;;;5092146;28;20596;-50
2023/01/02 06:58:21;;;;;;;0.82;0.40;;;14.10;99.90;;;;;;5093463;28;20862;-53
2023/01/02 07:00:48;;;;;;;1.10;0.40;;;14.10;99.90;;;;;;5092711;28;20460;-55
2023/01/02 07:03:16;;;;;;;0.70;0.40;;;14.10;99.90;;;;;;5094035;28;20512;-55
2023/01/02 07:05:44;;;;;;;0.70;0.40;;;14.00;99.90;;;;;;5091206;28;20509;-56
2023/01/02 07:08:13;;;;;;;0.70;0.40;;;14.10;99.90;;;;;;5093174;28;20729;-52
2023/01/02 07:10:40;;;;;;;1.00;0.40;;;14.10;99.90;;;;;;5091723;28;20479;-53
2023/01/02 07:13:07;;;;;;;0.50;0.30;;;14.10;99.90;;;;;;5092892;28;20426;-57
2023/01/02 07:15:35;;;;;;;1.00;0.40;;;14.10;99.90;;;;;;5086839;28;20857;-55
2023/01/02 07:18:02;;;;;;;0.70;0.30;;;14.00;99.90;;;;;;5076795;28;20470;-57
2023/01/02 07:20:29;;;;;;;1.20;0.80;;;14.00;99.90;;;;;;5074215;28;20420;-54
2023/01/02 07:22:56;;;;;;;1.80;0.45;;;14.00;99.90;;;;;;5073151;28;20435;-56
2023/01/02 07:25:25;;;;;;;0.80;0.40;;;13.90;99.90;;;;;;5073079;28;20443;-56
2023/01/02 07:27:52;;;;;;;0.87;0.60;;;13.90;99.90;;;;;;5072978;28;20427;-54
2023/01/02 07:30:19;;;;;;;1.40;0.30;;;13.90;99.90;;;;;;5073272;28;20503;-56
2023/01/02 07:32:46;;;;;;;1.40;0.50;;;13.90;99.90;;;;;;5070788;28;20727;-56
2023/01/02 07:35:13;;;;;;;1.00;0.40;;;13.90;99.90;;;;;;5072216;28;20442;-55
2023/01/02 07:37:41;;;;;;;1.50;0.40;;;13.80;99.90;;;;;;5072531;28;20432;-55
2023/01/02 07:40:09;;;;;;;0.80;0.40;;;13.80;99.90;;;;;;5071256;28;20454;-56
2023/01/02 07:42:38;;;;;;;2.03;0.40;;;13.80;99.90;;;;;;5081802;28;20434;-55
2023/01/02 07:45:09;;;;;;;0.70;0.40;;;13.80;99.90;;;;;;5090681;28;20806;-53
2023/01/02 07:47:36;;;;;;;1.40;0.40;;;13.70;99.90;;;;;;5082170;28;20518;-54
2023/01/02 07:50:04;;;;;;;0.70;0.50;;;13.80;99.90;;;;;;5089508;28;20874;-55
2023/01/02 07:52:31;;;;;;;1.35;0.40;;;13.70;99.90;;;;;;5088574;28;20418;-56
2023/01/02 07:54:58;;;;;;;1.88;0.50;;;13.70;99.90;;;;;;5089385;28;20518;-55
2023/01/02 07:57:25;;;;;;;1.40;0.40;;;13.70;99.90;;;;;;5088869;28;20424;-57
2023/01/02 07:59:54;;;;;;;1.55;0.40;;;13.70;99.90;;;;;;5090031;28;21030;-56
2023/01/02 08:02:21;;;;;;;1.33;0.40;;;13.70;99.90;;;;;;5090095;28;20949;-55
2023/01/02 08:04:49;;;;;;;0.90;0.40;;;13.70;99.90;;;;;;5084779;28;20898;-57
2023/01/02 08:07:16;;;;;;;2.00;0.40;;;13.70;99.90;;;;;;5087216;28;20762;-57
2023/01/02 08:09:43;;;;;;;0.70;0.40;;;13.80;99.90;;;;;;5090220;28;20690;-56
2023/01/02 08:12:10;;;;;;;2.13;0.40;;;13.80;99.90;;;;;;5081227;28;20849;-58
2023/01/02 08:14:37;;;;;;;1.30;0.40;;;13.80;99.90;;;;;;5079566;28;21070;-58
2023/01/02 08:17:07;;;;;;;1.45;0.50;;;13.80;99.90;;;;;;5085067;28;20532;-58
2023/01/02 08:19:34;;;;;;;1.10;0.40;;;13.90;99.90;;;;;;5089599;28;20417;-57
2023/01/02 08:22:02;;;;;;;1.25;0.40;;;13.90;99.90;;;;;;5089830;28;21017;-56
2023/01/02 08:24:29;;;;;;;1.30;0.43;;;13.90;99.90;;;;;;5090056;28;20493;-57
2023/01/02 08:26:56;;;;;;;0.80;0.40;;;13.80;99.90;;;;;;5087978;28;20504;-58
2023/01/02 08:29:23;;;;;;;1.60;0.40;;;13.90;99.90;;;;;;5090397;28;20501;-54
2023/01/02 08:31:50;;;;;;;3.10;0.50;;;13.90;99.90;;;;;;5091257;28;20425;-57
2023/01/02 08:34:19;;;;;;;0.60;0.30;;;14.00;99.90;;;;;;5090436;28;20529;-57
2023/01/02 08:36:46;;;;;;;0.90;0.40;;;14.00;99.90;;;;;;5089298;28;20440;-56
2023/01/02 08:39:14;;;;;;;1.23;0.40;;;14.00;99.90;;;;;;5089738;28;20424;-57
2023/01/02 08:41:41;;;;;;;1.50;0.40;;;14.00;99.90;;;;;;5090982;28;20514;-56
2023/01/02 08:44:09;;;;;;;0.70;0.40;;;14.00;99.90;;;;;;5089962;28;20440;-57
2023/01/02 08:46:36;;;;;;;1.60;0.40;;;14.00;99.90;;;;;;5088543;28;20501;-57
2023/01/02 08:49:03;;;;;;;1.10;0.50;;;14.00;99.90;;;;;;5089821;28;20421;-57
2023/01/02 08:51:34;;;;;;;0.77;0.40;;;14.10;99.90;;;;;;5090911;28;20513;-55
2023/01/02 08:54:01;;;;;;;1.45;0.45;;;14.20;99.90;;;;;;5093177;28;20889;-57
2023/01/02 08:56:30;;;;;;;1.97;0.50;;;14.30;99.90;;;;;;5095123;28;20449;-55
2023/01/02 08:58:59;;;;;;;1.73;0.40;;;14.40;99.90;;;;;;5095016;28;20441;-57
2023/01/02 09:01:29;;;;;;;1.30;0.45;;;14.50;99.90;;;;;;5093849;28;20489;-55
2023/01/02 09:03:56;;;;;;;2.55;0.50;;;14.50;99.90;;;;;;5094577;28;20850;-55
2023/01/02 09:06:25;;;;;;;0.95;0.43;;;14.40;99.90;;;;;;5094100;28;20887;-54
2023/01/02 09:08:56;;;;;;;0.70;0.40;;;14.40;99.90;;;;;;5094219;28;20410;-56
2023/01/02 09:11:27;;;;;;;0.85;0.60;;;14.40;99.90;;;;;;5094439;28;20891;-57
2023/01/02 09:13:55;;;;;;;1.15;0.50;;;14.50;99.90;;;;;;5088324;28;20976;-54
2023/01/02 09:16:23;;;;;;;0.70;0.40;;;14.50;99.90;;;;;;5093160;28;20418;-55
2023/01/02 09:18:50;;;;;;;1.10;0.40;;;14.50;99.90;;;;;;5095146;28;20417;-56
2023/01/02 09:21:17;;;;;;;0.70;0.38;;;14.50;99.90;;;;;;5093169;28;20418;-56
2023/01/02 09:23:45;;;;;;;1.00;0.30;;;14.50;99.90;;;;;;5092398;28;20513;-57
2023/01/02 09:26:13;;;;;;;1.25;0.40;;;14.50;99.90;;;;;;5091227;28;20501;-56
2023/01/02 09:28:41;;;;;;;2.00;0.40;;;14.50;99.90;;;;;;5089178;28;20425;-57
2023/01/02 09:31:10;;;;;;;0.77;0.40;;;14.50;99.90;;;;;;5093502;28;20433;-56
2023/01/02 09:33:38;;;;;;;0.73;0.40;;;14.60;99.90;;;;;;5078400;28;20423;-55
2023/01/02 09:36:08;;;;;;;1.80;0.40;;;14.60;99.90;;;;;;5089822;28;20510;-57
2023/01/02 09:38:35;;;;;;;1.30;0.60;;;14.60;99.90;;;;;;5086018;28;20888;-57
2023/01/02 09:41:09;;;;;;;1.50;0.50;;;14.70;99.90;;;;;;5090147;28;20505;-57
2023/01/02 09:43:44;;;;;;;1.30;0.60;;;14.70;99.90;;;;;;5091344;28;20466;-56
2023/01/02 09:46:20;;;;;;;1.10;0.60;;;14.70;99.90;;;;;;5086525;28;20420;-57
2023/01/02 09:48:47;;;;;;;1.02;0.50;;;14.70;99.90;;;;;;5091057;28;20509;-58
2023/01/02 09:51:14;;;;;;;1.00;0.40;;;14.70;99.90;;;;;;5091154;28;20422;-60
2023/01/02 09:53:41;;;;;;;1.50;0.40;;;14.70;99.90;;;;;;5090795;28;20912;-60
2023/01/02 09:56:13;;;;;;;2.30;0.47;;;14.80;99.90;;;;;;5086564;28;20422;-60
2023/01/02 09:58:47;;;;;;;1.30;0.50;;;14.90;99.90;;;;;;5090407;28;20429;-60
2023/01/02 10:01:23;;;;;;;1.90;0.70;;;14.90;99.90;;;;;;5092771;28;20429;-60
2023/01/02 10:03:59;;;;;;;1.35;0.40;;;15.00;99.90;;;;;;5090117;28;21158;-60
2023/01/02 10:06:34;;;;;;;1.20;0.50;;;15.10;99.90;;;;;;5090837;28;20512;-60
2023/01/02 10:09:09;;;;;;;1.10;0.50;;;15.30;99.90;;;;;;5092581;28;20415;-60
2023/01/02 10:11:48;;;;;;;2.67;0.60;;;15.40;99.90;;;;;;5092383;28;20433;-60
2023/01/02 10:14:23;;;;;;;0.90;0.40;;;15.50;99.90;;;;;;5093414;28;20505;-60
2023/01/02 10:16:53;;;;;;;1.50;0.40;;;15.70;99.90;;;;;;5080756;28;20535;-60
2023/01/02 10:19:26;;;;;;;1.92;0.40;;;15.90;99.90;;;;;;5084238;28;20425;-60
2023/01/02 10:21:58;;;;;;;1.00;0.50;;;15.90;99.90;;;;;;5091794;28;20513;-60
2023/01/02 10:24:39;;;;;;;0.90;0.43;;;15.80;99.90;;;;;;5092326;28;20414;-60
2023/01/02 10:27:13;;;;;;;0.95;0.40;;;15.80;99.90;;;;;;5088171;28;21083;-60
2023/01/02 10:29:48;;;;;;;1.00;0.30;;;15.80;99.90;;;;;;5085860;28;20908;-60
2023/01/02 10:32:18;;;;;;;1.00;0.50;;;15.80;99.90;;;;;;5092632;28;20833;-60
2023/01/02 10:34:53;;;;;;;0.82;0.40;;;15.80;99.90;;;;;;5090792;28;20413;-60
2023/01/02 10:37:20;;;;;;;0.80;0.40;;;15.80;99.90;;;;;;5091305;28;20462;-60
2023/01/02 10:39:50;;;;;;;0.80;0.40;;;15.70;99.90;;;;;;5090189;28;20840;-60
2023/01/02 10:42:17;;;;;;;1.20;0.40;;;15.60;99.90;;;;;;5092408;28;20430;-60
2023/01/02 10:44:47;;;;;;;0.85;0.30;;;15.60;99.90;;;;;;5090828;28;21034;-60
2023/01/02 10:47:21;;;;;;;0.80;0.40;;;15.60;99.90;;;;;;5089865;28;20483;-60
2023/01/02 10:49:50;;;;;;;1.20;0.40;;;15.70;99.90;;;;;;5097088;28;20478;-60
2023/01/02 10:52:24;;;;;;;1.20;0.45;;;15.70;99.90;;;;;;5087013;28;20447;-59
2023/01/02 10:54:53;;;;;;;2.13;0.40;;;15.80;99.90;;;;;;5089227;28;20904;-58
2023/01/02 10:57:26;;;;;;;1.60;0.50;;;15.80;99.90;;;;;;5091897;28;21240;-58
2023/01/02 10:59:59;;;;;;;1.35;0.50;;;15.90;99.90;;;;;;5090769;28;20432;-59
2023/01/02 11:02:30;;;;;;;1.90;0.60;;;16.00;99.90;;;;;;5091290;28;20882;-59
2023/01/02 11:05:02;;;;;;;1.40;0.40;;;16.00;99.90;;;;;;5089570;28;20423;-59
2023/01/02 11:07:33;;;;;;;2.10;0.50;;;16.00;99.90;;;;;;5091010;28;20434;-59
2023/01/02 11:10:01;;;;;;;1.80;0.43;;;16.10;99.90;;;;;;5084683;28;20453;-59
2023/01/02 11:12:28;;;;;;;1.50;0.50;;;16.10;99.90;;;;;;5091964;28;20453;-60
2023/01/02 11:15:11;;;;;;;1.50;0.40;;;16.10;99.90;;;;;;5092604;28;20426;-60
2023/01/02 11:17:43;;;;;;;1.08;0.40;;;16.20;99.90;;;;;;5087084;28;20863;-59
2023/01/02 11:20:26;;;;;;;3.20;0.55;;;16.20;99.90;;;;;;5071490;28;20526;-60
2023/01/02 11:22:56;;;;;;;1.30;0.40;;;16.40;99.90;;;;;;5071100;28;20530;-59
2023/01/02 11:25:27;;;;;;;1.42;0.50;;;16.60;99.90;;;;;;5070965;28;20419;-59
2023/01/02 11:27:58;;;;;;;1.52;0.40;;;16.80;99.90;;;;;;5083047;28;20518;-59
2023/01/02 11:30:38;;;;;;;1.25;0.40;;;17.00;99.90;;;;;;5089066;28;20441;-60
2023/01/02 11:33:18;;;;;;;1.45;0.60;;;17.00;99.90;;;;;;5070386;28;20534;-60
2023/01/02 11:35:48;;;;;;;2.90;0.70;;;17.00;99.90;;;;;;5053150;28;20926;-59
2023/01/02 11:38:19;;;;;;;1.80;0.50;;;17.00;99.90;;;;;;5078947;28;20456;-59
2023/01/02 11:40:55;;;;;;;2.40;0.50;;;17.00;99.90;;;;;;5076019;28;20525;-59
2023/01/02 11:46:30;;;;;;;1.48;0.40;;;17.10;99.90;;;;;;5086398;28;21077;-59
2023/01/02 11:49:03;;;;;;;1.48;0.40;;;17.20;98.90;;;;;;5074064;28;20426;-60
2023/01/02 11:51:33;;;;;;;1.90;0.50;;;17.30;99.90;;;;;;5084452;28;20423;-60
2023/01/02 11:54:04;;;;;;;1.90;0.50;;;17.30;99.90;;;;;;5074360;28;20755;-59
2023/01/02 11:56:35;;;;;;;0.95;0.40;;;17.30;98.80;;;;;;5071259;28;20735;-59
2023/01/02 11:59:06;;;;;;;1.23;0.50;;;17.20;99.80;;;;;;5070576;28;20442;-59
2023/01/02 12:01:47;;;;;;;2.30;1.10;;;17.10;99.90;;;;;;5074695;28;21096;-60
2023/01/02 12:04:14;;;;;;;1.10;0.50;;;17.10;99.90;;;;;;5072016;28;20432;-59
2023/01/02 12:07:14;;;;;;;2.60;0.50;;;17.10;99.90;;;;;;5071452;28;20420;-59
2023/01/02 12:09:53;;;;;;;3.38;0.60;;;17.00;98.70;;;;;;5013019;28;20432;-58
2023/01/02 12:12:37;;;;;;;1.30;0.47;;;16.90;98.80;;;;;;5066363;28;20525;-59
2023/01/02 12:15:23;;;;;;;1.15;0.40;;;16.80;99.20;;;;;;5062443;28;20433;-59
2023/01/02 12:18:01;;;;;;;1.80;0.60;;;16.80;99.10;;;;;;5065472;28;20515;-59
2023/01/02 12:20:40;;;;;;;1.23;0.47;;;16.70;99.10;;;;;;5051870;28;20422;-59
2023/01/02 12:23:30;;;;;;;1.30;0.50;;;16.80;99.90;;;;;;5047396;28;20433;-59
2023/01/02 12:26:07;;;;;;;1.98;0.60;;;16.80;99.80;;;;;;5046656;28;20486;-59
2023/01/02 12:28:51;;;;;;;2.40;0.50;;;16.80;99.50;;;;;;5051084;28;20543;-59
2023/01/02 12:31:32;;;;;;;2.53;0.50;;;16.90;99.80;;;;;;5054193;28;20503;-59
2023/01/02 12:34:11;;;;;;;0.90;0.50;;;16.80;99.90;;;;;;5054698;28;20507;-59
2023/01/02 12:36:56;;;;;;;1.92;0.40;;;16.70;99.90;;;;;;5054319;28;20766;-59
2023/01/02 12:39:50;;;;;;;1.37;0.50;;;16.70;99.90;;;;;;5055122;28;21020;-59
2023/01/02 12:42:33;;;;;;;2.47;0.45;;;16.60;99.90;;;;;;5052639;28;20451;-60
2023/01/02 12:45:01;;;;;;;1.40;0.50;;;16.60;99.90;;;;;;5052962;28;20455;-59
2023/01/02 12:47:38;;;;;;;2.70;0.60;;;16.60;99.90;;;;;;5053555;28;20439;-59
2023/01/02 12:50:45;;;;;;;1.50;0.50;;;16.70;99.90;;;;;;5053280;28;20501;-60
2023/01/02 12:53:26;;;;;;;1.00;0.50;;;16.70;99.90;;;;;;5045750;28;21129;-59
2023/01/02 12:56:03;;;;;;;1.85;0.50;;;16.80;99.90;;;;;;5052727;28;20424;-59
2023/01/02 12:58:45;;;;;;;0.90;0.50;;;16.90;99.90;;;;;;5052438;28;21074;-59
2023/01/02 13:01:20;;;;;;;3.65;0.90;;;16.90;99.90;;;;;;5051721;28;20416;-58
2023/01/02 13:04:00;;;;;;;1.25;0.60;;;17.00;99.90;;;;;;5053518;28;20493;-58
2023/01/02 13:06:39;;;;;;;1.48;0.50;;;17.10;99.90;;;;;;5052100;28;20409;-58
2023/01/02 13:09:13;;;;;;;1.00;0.50;;;17.10;99.90;;;;;;5053824;28;20416;-58
2023/01/02 13:11:46;;;;;;;1.70;0.40;;;17.20;99.90;;;;;;5053197;28;20484;-58
2023/01/02 13:14:19;;;;;;;1.17;0.60;;;17.30;99.90;;;;;;5053074;28;20856;-60